Date,TemperatureHighF,TemperatureAvgF,TemperatureLowF,DewpointHighF,DewpointAvgF,DewpointLowF,HumidityHigh,HumidityAvg,HumidityLow,PressureMaxIn,PressureMinIn,WindSpeedMaxMPH,WindSpeedAvgMPH,GustSpeedMaxMPH,PrecipitationSumIn
2012-1-1,50.7,42.7,32.9,46.8,40.2,32.9,100,92,65,30.00,29.53,19,5,19,0.24
2012-1-2,46.0,36.4,29.5,45.2,26.1,20.4,97,66,50,29.67,29.51,30,14,30,0.00
2012-1-3,29.5,21.1,10.0,23.2,10.3,-2.4,88,63,48,30.03,29.67,26,8,26,0.00
2012-1-4,23.7,16.0,7.7,12.7,5.7,-0.9,77,64,47,30.11,29.83,13,4,13,0.00
2012-1-5,37.6,29.7,22.2,23.9,18.8,12.6,71,64,54,29.85,29.69,18,4,18,0.00
2012-1-6,48.3,38.9,30.2,30.8,27.5,22.7,79,64,46,29.84,29.60,21,4,21,0.00
2012-1-7,57.7,44.4,32.6,35.7,32.0,27.5,86,63,40,29.86,29.57,20,4,20,0.00
2012-1-8,42.0,36.4,27.4,28.6,24.3,18.2,75,62,47,30.23,29.86,18,4,18,0.00
2012-1-9,40.2,30.7,22.5,23.8,17.9,12.1,81,61,32,30.25,29.88,13,2,13,0.00
2012-1-10,43.2,35.4,28.0,29.9,26.3,22.2,81,69,56,29.90,29.71,18,3,18,0.00
2012-1-11,43.8,35.5,26.7,36.2,27.5,23.4,95,73,52,30.00,29.82,12,4,12,0.00
2012-1-12,38.9,36.5,34.6,38.0,36.2,34.2,100,99,95,29.82,29.39,23,7,23,0.39
2012-1-13,44.3,33.0,26.1,44.3,27.5,14.5,100,81,58,29.62,29.13,38,14,38,0.05
2012-1-14,31.7,26.6,19.0,19.1,15.7,8.7,72,63,52,29.98,29.62,23,12,23,0.00
2012-1-15,18.5,12.9,5.5,11.0,0.1,-4.7,74,57,36,30.51,29.99,17,6,17,0.00
2012-1-16,31.5,19.8,8.1,29.2,9.2,-1.0,97,64,36,30.54,30.04,17,4,17,0.14
2012-1-17,46.7,36.9,30.1,45.7,36.4,29.1,100,98,94,30.04,29.40,30,7,30,0.16
2012-1-18,47.8,32.5,17.7,45.2,19.5,7.1,96,59,46,30.09,29.40,36,12,36,0.00
2012-1-19,30.0,21.8,11.3,28.4,14.7,7.5,95,75,49,30.19,29.83,14,3,14,0.01
2012-1-20,29.9,24.5,19.3,27.4,14.4,6.6,90,66,52,30.22,29.83,17,6,17,0.00
2012-1-21,23.2,19.0,13.7,20.7,15.2,7.0,95,85,58,30.26,29.95,12,1,12,0.48
2012-1-22,28.7,20.3,8.2,24.2,15.9,6.4,93,83,72,30.46,30.26,9,1,9,0.00
2012-1-23,48.4,35.7,28.2,48.4,34.7,24.0,100,96,84,30.36,29.76,18,2,18,0.27
2012-1-24,48.8,43.8,35.4,48.3,39.1,31.4,100,84,68,30.03,29.76,27,7,27,0.00
2012-1-25,40.6,35.2,31.4,31.6,28.0,26.3,88,75,62,30.19,30.03,15,3,15,0.00
2012-1-26,37.0,33.2,30.8,34.7,29.9,26.5,100,88,72,30.14,29.77,10,2,10,0.32
2012-1-27,49.8,40.3,34.2,49.8,38.4,30.7,100,93,71,29.77,29.23,31,6,31,0.54
2012-1-28,44.0,38.1,31.7,31.4,28.3,25.0,78,68,56,29.93,29.69,22,7,22,0.00
2012-1-29,41.1,35.6,30.4,25.4,18.3,14.8,61,49,40,30.04,29.86,26,13,26,0.00
2012-1-30,36.3,32.1,26.4,23.7,18.2,14.6,69,57,42,30.20,29.86,26,8,26,0.00
2012-1-31,54.8,41.5,28.6,31.9,25.7,18.7,72,55,37,30.16,29.88,18,4,18,0.00
2012-2-1,58.7,50.0,39.8,43.6,36.9,30.9,78,61,49,29.91,29.70,26,9,26,0.00
2012-2-2,41.6,36.8,30.5,33.6,28.9,22.6,83,73,62,30.15,29.89,17,4,17,0.00
2012-2-3,39.5,31.5,23.5,23.4,19.4,16.5,76,61,44,30.35,30.15,17,6,17,0.00
2012-2-4,43.4,36.6,29.2,28.6,24.8,21.5,73,62,47,30.21,30.01,13,4,13,0.00
2012-2-5,35.5,29.3,24.6,21.6,18.0,15.7,74,63,48,30.09,30.00,14,3,14,0.00
2012-2-6,50.0,36.2,20.7,27.5,23.0,16.6,88,61,34,30.08,29.81,17,5,17,0.00
2012-2-7,45.1,38.2,30.1,29.3,26.3,21.8,75,62,48,30.17,29.83,16,4,16,0.00
2012-2-8,37.2,30.6,24.7,24.2,14.0,8.6,78,51,33,30.25,30.00,10,2,10,0.00
2012-2-9,43.4,33.3,25.3,25.1,21.1,16.7,94,64,34,30.04,29.93,15,4,15,0.00
2012-2-10,44.2,35.3,25.3,26.2,23.0,20.4,86,62,43,30.06,29.81,24,5,24,0.00
2012-2-11,37.4,33.0,24.3,31.7,25.9,17.2,95,75,60,29.81,29.48,15,4,15,0.01
2012-2-12,28.2,21.0,12.7,17.9,9.4,-0.8,76,60,49,29.85,29.60,29,9,29,0.00
2012-2-13,41.8,32.1,20.8,19.9,17.2,10.2,77,55,34,29.92,29.76,28,12,28,0.00
2012-2-14,43.3,37.5,32.6,32.7,18.7,15.5,88,47,34,30.00,29.90,14,3,14,0.02
2012-2-15,43.9,37.8,32.9,40.2,34.0,28.8,99,87,72,30.19,29.99,9,2,9,0.06
2012-2-16,38.2,33.7,27.9,38.2,31.5,26.0,100,92,76,30.23,29.93,9,1,9,0.27
2012-2-17,47.6,40.6,33.3,42.3,33.2,22.6,100,78,45,29.93,29.80,17,4,17,0.02
2012-2-18,43.6,36.6,30.2,33.8,26.1,21.9,90,67,43,29.99,29.75,16,5,16,0.00
2012-2-19,41.6,34.5,29.4,30.7,22.9,18.7,90,64,41,30.01,29.88,14,5,15,0.00
2012-2-20,38.6,31.4,26.3,22.3,18.1,14.0,75,59,38,30.25,29.92,21,5,21,0.00
2012-2-21,41.4,33.6,20.8,36.8,24.8,16.5,91,71,44,30.30,29.76,18,4,18,0.00
2012-2-22,53.4,44.1,35.4,40.1,33.6,27.2,97,69,37,29.76,29.41,21,6,21,0.00
2012-2-23,52.9,43.8,34.5,43.9,33.2,24.7,98,69,40,29.70,29.30,26,5,26,0.00
2012-2-24,37.2,34.3,32.5,36.7,33.1,25.4,100,96,68,29.71,29.24,30,4,30,0.76
2012-2-25,39.4,35.1,28.3,35.9,23.9,14.6,95,64,50,29.87,29.25,39,19,39,0.00
2012-2-26,39.2,31.1,25.8,17.9,15.4,12.5,66,53,35,30.36,29.87,24,8,24,0.00
2012-2-27,52.1,37.5,23.1,35.3,26.7,14.5,86,66,42,30.37,29.97,17,3,17,0.00
2012-2-28,46.1,39.7,33.6,33.0,23.3,19.5,65,52,38,30.31,30.02,26,7,26,0.00
2012-2-29,37.1,32.7,30.8,33.2,27.6,19.9,100,83,57,30.29,29.71,13,3,13,0.58
2012-3-1,35.4,33.5,29.4,35.4,33.2,26.6,100,99,89,29.91,29.60,9,3,10,0.19
2012-3-2,34.9,30.9,26.9,34.5,28.9,24.4,100,92,84,30.04,29.75,17,5,17,0.16
2012-3-3,53.6,42.2,33.8,46.8,32.8,16.6,100,76,25,29.75,29.30,32,9,32,0.32
2012-3-4,43.2,37.2,30.6,24.7,21.4,18.3,70,53,39,29.63,29.44,21,7,21,0.00
2012-3-5,38.3,30.0,21.2,19.9,12.9,5.4,68,50,26,30.31,29.61,23,8,23,0.00
2012-3-6,40.5,28.6,17.3,26.4,13.4,8.3,80,55,31,30.52,30.31,10,3,10,0.00
2012-3-7,58.5,44.4,32.1,38.0,29.9,23.5,81,59,34,30.47,30.18,16,5,16,0.00
2012-3-8,66.9,57.1,46.8,48.3,45.7,38.1,87,67,48,30.19,29.64,30,14,30,0.00
2012-3-9,60.0,39.6,31.9,48.5,27.1,16.7,96,63,32,30.14,29.64,24,8,24,0.04
2012-3-10,39.3,31.7,25.9,19.7,15.4,10.3,62,51,39,30.43,30.14,18,6,18,0.00
2012-3-11,58.9,44.0,28.8,28.2,22.2,16.8,69,44,25,30.43,30.17,18,5,18,0.00
2012-3-12,70.4,55.8,40.9,36.4,30.7,24.9,64,41,18,30.22,30.00,13,3,13,0.00
2012-3-13,71.6,60.0,50.9,54.4,48.1,34.7,96,66,43,30.00,29.74,15,5,15,0.03
2012-3-14,66.1,57.4,47.7,51.2,36.1,18.1,79,50,16,30.10,29.83,18,4,18,0.00
2012-3-15,52.7,45.1,41.1,41.5,39.2,32.5,98,81,56,30.23,30.10,14,4,14,0.00
2012-3-16,50.4,43.2,39.3,47.4,42.4,39.1,100,97,86,30.21,30.00,9,2,9,0.01
2012-3-17,63.8,52.0,41.0,49.8,44.8,40.8,100,79,48,30.26,30.09,13,4,13,0.00
2012-3-18,71.4,54.3,42.9,51.3,47.1,41.2,99,80,44,30.26,30.04,16,4,16,0.00
2012-3-19,76.8,60.7,46.1,54.1,49.7,45.3,100,71,36,30.11,29.99,10,2,10,0.00
2012-3-20,74.7,62.0,48.7,57.9,51.0,44.6,93,69,44,30.20,30.09,12,3,12,0.00
2012-3-21,71.3,61.0,55.2,62.8,57.1,55.2,100,88,62,30.25,30.11,10,2,10,0.00
2012-3-22,76.8,65.1,54.0,61.3,55.5,52.1,100,75,44,30.17,29.91,17,6,17,0.00
2012-3-23,73.0,64.7,59.9,56.0,51.6,37.0,85,66,28,29.99,29.91,13,4,13,0.00
2012-3-24,62.5,57.3,48.7,28.0,23.1,16.4,44,27,18,29.97,29.88,13,7,13,0.00
2012-3-25,52.6,47.0,40.8,43.6,35.9,24.4,88,66,39,29.90,29.62,13,2,13,0.00
2012-3-26,51.2,43.1,30.7,44.6,26.7,5.6,93,56,30,30.03,29.57,28,9,28,0.00
2012-3-27,45.8,33.9,24.6,14.4,5.2,-1.3,42,31,16,30.16,30.03,25,8,25,0.00
2012-3-28,59.9,46.4,34.3,45.7,32.5,13.8,97,60,37,30.06,29.42,12,3,12,0.30
2012-3-29,54.0,47.1,39.4,45.6,36.5,28.5,85,67,50,29.90,29.48,18,6,18,0.02
2012-3-30,51.1,42.9,32.2,30.3,20.8,12.6,67,44,23,29.97,29.84,16,4,16,0.00
2012-3-31,45.1,39.2,36.0,37.8,36.2,29.8,100,89,55,29.91,29.78,10,3,10,0.25
2012-4-1,48.5,43.8,38.3,43.3,39.8,35.4,100,87,65,29.81,29.54,10,2,10,0.32
2012-4-2,52.8,44.0,38.0,41.7,29.7,15.8,100,63,25,29.76,29.53,25,7,25,0.00
2012-4-3,59.8,46.9,33.8,21.0,14.6,7.6,54,30,13,29.82,29.64,21,4,21,0.00
2012-4-4,62.8,52.2,41.9,33.9,21.8,12.7,65,32,18,29.67,29.39,25,7,25,0.00
2012-4-5,51.2,43.1,36.5,29.8,26.6,23.4,70,53,36,29.85,29.63,19,6,19,0.00
2012-4-6,52.6,42.6,31.5,27.6,22.6,17.7,70,47,29,29.94,29.80,23,5,23,0.00
2012-4-7,56.0,46.6,33.9,25.5,20.4,11.1,55,36,18,29.97,29.83,17,6,17,0.00
2012-4-8,62.3,50.1,37.3,32.7,24.0,17.5,59,38,19,29.91,29.51,18,5,18,0.00
2012-4-9,57.8,51.1,44.8,36.1,26.2,19.1,56,38,26,29.57,29.45,32,14,32,0.00
2012-4-10,59.5,50.6,43.5,34.4,26.8,21.0,70,41,23,29.69,29.49,28,11,28,0.00
2012-4-11,52.8,45.2,39.5,37.4,32.0,27.6,82,61,39,29.81,29.67,13,4,13,0.01
2012-4-12,57.2,47.8,39.2,37.6,33.8,26.5,84,60,32,30.01,29.81,17,6,17,0.00
2012-4-13,63.2,51.3,39.4,33.7,28.9,22.0,76,46,21,30.09,29.95,14,5,14,0.00
2012-4-14,70.7,56.6,40.3,36.8,27.9,18.4,64,36,15,30.11,29.86,21,5,21,0.00
2012-4-15,75.5,64.4,56.3,57.2,50.3,34.3,76,61,37,29.89,29.78,24,6,24,0.00
2012-4-16,87.8,71.2,57.7,57.4,52.9,41.8,92,58,20,29.89,29.73,22,5,22,0.00
2012-4-17,74.0,65.4,52.1,55.7,41.9,30.4,79,46,21,30.09,29.77,17,6,17,0.00
2012-4-18,58.2,51.0,42.8,35.3,31.6,28.2,61,48,32,30.17,30.01,16,5,16,0.00
2012-4-19,72.8,58.4,46.3,44.4,37.3,24.5,77,49,18,30.02,29.82,17,4,17,0.00
2012-4-20,73.7,60.1,46.4,52.0,46.5,43.1,95,63,36,29.91,29.75,18,6,18,0.00
2012-4-21,75.8,63.2,50.2,56.6,53.0,47.0,94,71,42,29.75,29.52,18,7,18,0.01
2012-4-22,50.0,45.5,43.4,47.8,43.6,40.3,100,93,77,29.70,29.35,14,6,14,1.94
2012-4-23,52.6,47.5,42.8,52.6,45.8,38.7,100,94,80,29.35,29.13,16,7,16,0.88
2012-4-24,56.3,46.7,37.4,39.1,34.4,27.1,96,66,33,29.61,29.27,24,10,24,0.01
2012-4-25,60.0,48.0,36.8,38.4,33.5,30.1,79,59,34,29.84,29.62,23,5,23,0.00
2012-4-26,58.3,47.2,33.3,53.1,40.3,31.1,100,78,55,29.87,29.48,12,3,12,0.02
2012-4-27,53.4,46.0,35.8,53.4,33.5,24.9,100,63,40,30.02,29.46,29,11,29,0.07
2012-4-28,59.8,46.4,31.8,27.1,22.8,17.2,76,44,19,30.12,29.93,17,6,17,0.00
2012-4-29,60.0,48.4,35.5,23.5,17.6,11.0,47,31,16,30.15,29.91,16,6,16,0.00
2012-4-30,64.3,50.2,35.1,39.8,24.4,16.9,74,39,18,30.25,30.05,16,4,16,0.01
2012-5-1,60.9,52.0,46.5,56.4,48.9,39.2,100,90,70,30.08,29.85,10,3,10,0.37
2012-5-2,52.6,49.8,46.4,50.0,47.6,45.5,98,92,84,30.08,30.00,8,2,8,0.04
2012-5-3,54.9,51.8,49.0,54.9,51.5,47.2,100,99,90,30.07,29.98,9,3,9,0.21
2012-5-4,75.1,61.2,50.4,63.2,57.6,50.4,100,89,62,30.03,29.72,14,3,14,0.42
2012-5-5,68.2,59.6,56.2,62.0,57.9,56.2,100,95,72,29.94,29.78,9,2,9,0.00
2012-5-6,68.1,59.2,51.4,56.6,51.5,45.6,100,78,50,29.97,29.89,13,3,13,0.00
2012-5-7,69.4,57.4,48.0,53.3,48.0,43.6,98,73,47,30.02,29.93,14,4,14,0.00
2012-5-8,60.7,55.6,52.2,56.9,50.9,42.3,100,85,67,29.98,29.73,18,6,18,0.19
2012-5-9,68.7,61.1,56.1,66.9,60.2,56.1,100,97,82,29.73,29.47,9,1,9,0.18
2012-5-10,59.8,54.2,46.3,59.4,47.5,38.5,100,80,52,29.69,29.37,22,7,22,0.53
2012-5-11,67.8,55.2,42.9,41.3,34.8,20.1,86,51,19,30.00,29.69,22,6,22,0.00
2012-5-12,78.2,60.6,40.7,47.1,38.2,32.4,85,49,20,30.11,29.96,15,3,15,0.00
2012-5-13,80.7,66.7,51.7,55.0,48.5,43.5,87,56,28,30.07,29.91,16,3,16,0.00
2012-5-14,70.6,63.0,59.6,64.4,59.8,54.0,100,90,64,30.03,29.96,14,2,14,0.37
2012-5-15,62.7,60.5,58.4,62.7,60.5,58.4,100,100,98,30.01,29.83,12,2,12,0.46
2012-5-16,75.4,66.1,60.5,70.0,63.4,58.9,100,92,64,29.84,29.66,13,3,13,0.37
2012-5-17,68.9,58.7,48.4,58.6,42.7,35.6,86,58,33,30.06,29.78,21,4,21,0.00
2012-5-18,72.1,58.8,45.5,47.8,42.7,38.7,87,59,31,30.14,30.00,9,2,9,0.00
2012-5-19,81.0,64.1,45.8,52.4,45.0,37.7,95,56,23,30.07,29.94,10,2,10,0.00
2012-5-20,81.4,65.5,52.1,56.4,44.6,26.2,91,53,22,30.15,30.06,12,2,12,0.00
2012-5-21,64.0,60.3,52.6,64.0,54.4,36.6,100,82,53,30.14,29.90,8,1,8,0.42
2012-5-22,68.4,63.5,60.3,67.7,63.4,60.3,100,100,94,29.90,29.67,8,1,8,0.13
2012-5-23,73.4,66.5,60.3,69.1,64.2,60.3,100,93,73,29.93,29.74,8,2,8,0.01
2012-5-24,72.6,64.8,60.5,66.8,62.8,60.5,100,94,72,30.10,29.93,10,2,10,0.01
2012-5-25,71.9,64.5,59.3,71.0,64.1,59.3,100,99,90,30.10,29.98,13,3,13,0.02
2012-5-26,84.1,73.0,66.3,72.6,68.5,65.3,100,87,58,29.99,29.91,12,2,12,0.00
2012-5-27,81.9,70.3,58.8,67.1,60.4,54.1,100,75,42,30.06,29.87,12,2,12,0.25
2012-5-28,86.3,74.7,65.6,77.6,68.0,63.5,100,82,48,29.87,29.75,10,2,10,2.08
2012-5-29,88.6,76.3,66.9,74.3,69.1,62.0,100,81,50,29.79,29.54,23,4,23,0.51
2012-5-30,76.9,70.2,64.3,70.5,63.5,56.3,100,81,50,29.66,29.55,12,2,12,0.28
2012-5-31,76.3,67.1,58.2,62.8,54.1,46.6,100,66,38,29.83,29.61,14,4,14,0.00
2012-6-1,72.6,61.8,52.7,55.7,51.5,47.4,96,70,51,29.92,29.77,20,5,20,0.01
2012-6-2,68.9,61.1,55.9,67.3,59.0,55.1,100,93,69,29.77,29.53,12,3,12,1.55
2012-6-3,73.6,60.9,51.0,60.7,54.8,50.4,100,83,45,29.66,29.49,18,3,18,0.24
2012-6-4,60.1,54.0,49.5,56.8,51.8,48.1,100,93,67,29.73,29.53,14,3,14,0.02
2012-6-5,62.3,55.3,48.8,55.0,50.9,47.8,99,86,66,29.85,29.72,10,2,10,0.02
2012-6-6,69.5,58.8,48.5,59.8,52.3,48.5,100,82,50,29.89,29.80,9,1,9,0.00
2012-6-7,75.3,61.8,51.3,61.2,54.2,48.2,100,80,39,29.88,29.75,13,2,13,0.17
2012-6-8,77.8,62.9,49.5,65.5,56.5,49.5,100,83,43,29.85,29.67,15,2,15,0.04
2012-6-9,70.0,63.6,57.1,63.1,59.8,54.9,98,88,72,29.86,29.72,10,2,10,0.00
2012-6-10,80.5,70.0,58.9,69.0,62.4,58.9,100,79,53,30.07,29.86,9,2,9,0.00
2012-6-11,74.2,66.6,61.1,62.2,57.2,49.3,98,74,43,30.13,30.06,15,4,15,0.00
2012-6-12,70.2,64.5,60.6,67.2,63.2,57.9,100,96,81,30.08,29.78,12,4,12,0.32
2012-6-13,75.7,66.1,61.6,66.3,63.2,58.6,100,91,56,29.95,29.76,9,2,9,0.54
2012-6-14,76.0,66.0,56.3,63.0,58.3,55.7,100,78,52,30.13,29.95,9,2,9,0.00
2012-6-15,77.3,67.5,58.6,64.7,55.3,47.9,100,70,38,30.19,30.10,9,1,9,0.00
2012-6-16,77.7,66.0,53.5,59.9,55.0,51.5,100,71,40,30.23,30.07,9,2,9,0.00
2012-6-17,73.4,63.1,56.3,59.0,56.3,51.6,97,79,56,30.13,29.94,13,3,13,0.00
2012-6-18,72.5,62.0,52.5,57.2,54.4,51.9,99,78,50,30.04,29.94,10,3,10,0.00
2012-6-19,74.4,65.9,57.2,65.9,61.4,54.9,97,86,70,30.05,29.92,12,4,12,0.00
2012-6-20,92.2,78.3,63.3,75.6,69.5,63.3,100,77,48,29.95,29.80,11,2,11,0.00
2012-6-21,91.6,81.5,73.0,73.5,69.6,63.5,96,70,41,29.82,29.64,11,2,11,0.00
2012-6-22,87.7,75.9,67.7,73.4,69.2,63.9,100,81,49,29.70,29.60,17,2,17,0.14
2012-6-23,82.3,71.3,61.7,68.3,60.4,53.1,100,72,38,29.86,29.69,17,4,17,0.08
2012-6-24,81.0,70.4,58.1,61.5,56.5,48.2,92,64,34,29.90,29.75,12,3,12,0.00
2012-6-25,72.1,63.9,55.4,67.8,62.4,54.6,100,95,70,29.75,29.52,15,2,15,1.04
2012-6-26,68.6,59.9,51.5,56.8,53.0,49.7,98,79,61,29.62,29.53,15,4,15,0.00
2012-6-27,80.0,67.7,57.9,54.8,48.3,33.7,76,53,19,29.69,29.56,20,6,20,0.00
2012-6-28,85.5,72.3,59.8,63.7,56.6,49.3,81,60,35,29.70,29.55,10,3,10,0.00
2012-6-29,90.7,77.7,66.1,71.5,66.0,56.7,94,69,46,29.59,29.48,19,3,19,0.00
2012-6-30,88.9,76.5,64.1,65.7,60.8,55.2,87,61,33,29.65,29.56,14,4,14,0.00
2012-7-1,88.6,77.2,67.9,69.5,62.7,53.0,85,62,44,29.75,29.64,13,2,13,0.00
2012-7-2,82.6,73.3,63.8,62.4,58.2,54.2,77,60,41,29.81,29.74,12,2,12,0.00
2012-7-3,84.9,73.5,60.7,63.8,59.2,53.3,89,63,36,29.83,29.71,10,2,10,0.00
2012-7-4,87.2,76.7,68.4,74.2,68.8,63.3,100,79,51,29.72,29.58,9,2,9,0.03
2012-7-5,85.0,76.1,66.8,73.2,66.7,58.7,100,76,42,29.77,29.59,14,2,14,0.00
2012-7-6,87.0,74.8,62.0,68.0,63.1,57.8,100,71,38,29.83,29.72,9,2,9,0.00
2012-7-7,88.2,75.1,67.5,74.0,68.8,63.4,100,83,45,29.75,29.66,14,2,14,0.07
2012-7-8,86.7,80.0,65.6,69.9,62.4,54.6,99,56,35,29.78,29.67,8,3,8,0.00
2012-7-9,82.1,72.4,60.9,59.3,55.6,51.8,86,58,36,29.86,29.76,10,2,10,0.00
2012-7-10,83.9,71.0,58.7,65.0,54.3,47.2,99,59,28,29.97,29.85,9,2,9,0.07
2012-7-11,84.5,72.6,60.7,71.3,62.0,52.6,100,74,34,30.05,29.96,9,3,9,0.00
2012-7-12,87.7,75.7,63.7,68.1,61.5,57.6,100,65,37,30.07,29.95,10,3,10,0.00
2012-7-13,86.4,75.8,64.7,66.8,63.8,59.0,91,68,44,30.06,30.00,8,2,8,0.00
2012-7-14,87.4,77.4,67.9,70.7,64.3,56.4,100,67,36,30.08,29.98,12,4,12,0.02
2012-7-15,83.8,73.3,66.6,75.8,68.0,61.7,100,85,59,30.02,29.79,9,2,9,0.85
2012-7-16,85.9,76.2,68.8,75.3,69.9,64.2,100,83,50,29.81,29.65,12,2,12,0.00
2012-7-17,91.9,80.1,67.5,71.2,67.0,61.0,100,68,36,29.73,29.58,16,5,16,0.00
2012-7-18,94.9,80.7,72.7,75.8,71.7,67.2,100,78,42,29.77,29.63,32,4,32,0.82
2012-7-19,77.9,70.7,65.5,72.9,65.2,57.0,100,84,51,29.88,29.77,8,1,8,0.02
2012-7-20,67.7,63.2,59.9,67.2,63.2,59.9,100,100,96,29.95,29.84,13,1,13,0.41
2012-7-21,78.2,66.7,59.3,67.4,59.3,52.7,100,81,43,29.98,29.92,9,2,9,0.00
2012-7-22,80.9,74.4,59.9,66.1,61.3,57.8,100,65,49,30.03,29.94,12,4,12,0.00
2012-7-23,82.0,72.7,65.2,74.3,68.3,59.3,100,87,67,29.99,29.64,13,3,13,0.16
2012-7-24,86.6,74.9,67.5,73.1,67.0,55.6,100,79,47,29.65,29.42,23,4,23,0.24
2012-7-25,82.2,70.2,58.8,61.8,55.2,51.0,84,61,38,29.76,29.63,16,3,16,0.00
2012-7-26,84.0,71.2,64.8,72.1,67.0,59.7,100,88,63,29.67,29.47,38,3,38,0.70
2012-7-27,83.5,74.9,68.8,77.2,71.3,68.8,100,90,62,29.75,29.53,12,2,12,0.06
2012-7-28,78.4,71.2,66.1,73.4,69.9,66.1,100,96,76,29.83,29.74,13,2,13,1.31
2012-7-29,76.5,69.4,65.4,71.3,66.9,64.3,100,92,67,29.94,29.80,8,1,8,0.00
2012-7-30,79.6,69.7,63.6,68.4,65.2,62.1,100,87,61,30.00,29.92,9,2,9,0.00
2012-7-31,75.8,68.0,64.8,68.2,65.0,62.2,100,91,64,29.98,29.78,7,1,7,0.00
2012-8-1,81.9,71.5,64.3,72.9,68.7,64.3,100,92,57,29.81,29.70,10,2,10,0.05
2012-8-2,85.7,75.6,66.1,75.9,67.3,61.7,100,79,46,29.80,29.72,9,2,9,0.00
2012-8-3,88.2,78.2,68.0,75.5,70.5,66.9,100,80,51,29.99,29.80,9,2,9,0.00
2012-8-4,88.0,78.4,71.2,79.3,71.5,66.8,100,81,54,30.08,29.99,13,2,13,0.00
2012-8-5,83.5,76.5,74.8,76.7,74.8,72.6,99,95,71,30.08,29.95,13,4,13,0.00
2012-8-6,79.4,70.7,63.0,63.9,61.3,59.1,90,73,53,29.90,29.83,6,0,6,0.00
2012-8-7,81.8,70.1,58.4,64.7,60.8,53.0,100,76,38,29.92,29.82,9,1,9,0.00
2012-8-8,84.9,73.9,62.5,73.1,65.3,57.7,100,78,40,29.88,29.80,10,2,10,0.00
2012-8-9,87.0,76.3,69.7,76.8,68.8,62.5,100,80,46,29.85,29.74,16,3,16,0.00
2012-8-10,78.2,73.7,68.7,77.4,73.2,66.1,100,98,88,29.79,29.63,10,2,10,0.83
2012-8-11,82.8,78.8,74.1,78.9,72.8,70.4,100,83,67,29.78,29.69,14,5,14,0.00
2012-8-12,83.5,75.9,67.7,73.7,67.1,59.6,100,77,46,29.82,29.73,15,3,15,0.01
2012-8-13,81.7,71.5,62.1,65.6,62.8,60.5,100,76,50,29.87,29.78,10,2,10,0.00
2012-8-14,78.3,69.4,61.3,73.3,66.3,61.3,100,91,65,29.86,29.75,9,1,9,0.01
2012-8-15,72.0,68.0,63.5,70.5,67.8,63.5,100,99,83,29.79,29.71,12,1,12,0.62
2012-8-16,81.1,71.6,64.6,69.4,64.5,59.9,100,81,49,29.79,29.71,14,3,14,0.00
2012-8-17,83.8,71.6,60.3,69.4,64.6,59.1,100,80,52,29.77,29.64,21,3,21,0.11
2012-8-18,76.1,67.7,62.6,68.2,63.4,56.1,100,88,51,29.78,29.72,9,2,9,0.31
2012-8-19,72.8,66.4,59.3,61.7,58.3,55.8,94,76,57,29.84,29.79,5,1,5,0.00
2012-8-20,77.3,66.5,55.7,67.1,59.6,55.7,100,81,51,29.84,29.70,7,1,7,0.00
2012-8-21,78.2,68.6,61.9,63.7,60.2,54.3,100,77,45,29.99,29.81,10,2,10,0.00
2012-8-22,80.5,69.4,58.6,66.3,60.3,54.5,100,76,41,30.03,29.95,10,2,10,0.00
2012-8-23,83.9,72.3,60.5,70.1,61.2,52.1,100,72,34,30.04,29.94,10,2,10,0.00
2012-8-24,74.1,69.7,66.2,65.1,64.1,63.5,96,83,70,30.07,30.01,2,1,2,0.00
2012-8-25,81.3,70.7,62.9,72.3,62.1,55.0,100,77,44,30.18,30.07,8,2,8,0.00
2012-8-26,80.3,69.8,60.0,65.7,58.3,44.8,100,72,30,30.21,30.10,9,2,9,0.00
2012-8-27,80.2,72.4,60.9,73.4,67.1,60.8,100,84,64,30.11,29.81,16,4,16,0.00
2012-8-28,83.5,75.0,66.7,73.8,66.4,56.2,100,77,46,29.81,29.64,17,6,17,0.19
2012-8-29,73.9,65.1,55.2,58.1,52.4,46.9,92,66,39,29.93,29.79,14,3,14,0.00
2012-8-30,78.4,64.8,50.3,58.6,52.5,47.5,100,69,35,30.00,29.90,13,3,13,0.00
2012-8-31,85.9,71.6,61.0,60.9,56.5,52.6,86,61,37,29.93,29.75,13,4,13,0.00
2012-9-1,86.4,79.4,70.2,67.6,61.6,54.4,84,57,34,29.96,29.76,12,4,12,0.00
2012-9-2,79.8,71.9,64.9,66.0,62.9,56.1,96,75,48,30.00,29.88,8,1,8,0.00
2012-9-3,73.9,67.8,60.3,66.1,61.2,53.8,100,81,53,30.06,29.99,8,2,8,0.00
2012-9-4,77.4,70.9,66.2,74.2,69.3,62.9,100,95,82,30.00,29.71,8,2,8,0.09
2012-9-5,79.2,73.9,67.5,74.9,71.1,65.8,100,92,65,29.72,29.64,24,5,24,0.95
2012-9-6,79.3,70.0,63.0,70.2,66.9,63.0,100,91,67,29.81,29.71,9,1,9,0.00
2012-9-7,80.9,70.7,66.2,75.2,69.0,66.2,100,95,62,29.81,29.72,6,0,6,0.00
2012-9-8,78.2,70.7,62.7,76.6,69.6,62.7,100,97,80,29.75,29.44,28,4,28,2.14
2012-9-9,74.2,64.4,56.9,62.4,58.8,54.7,100,85,51,29.79,29.65,10,2,10,0.15
2012-9-10,68.0,59.3,51.9,57.7,50.2,43.2,100,75,46,30.04,29.79,16,5,16,0.00
2012-9-11,68.4,56.3,45.2,54.5,47.9,43.9,96,76,44,30.18,30.04,10,2,10,0.00
2012-9-12,76.7,62.0,48.2,61.0,53.0,48.2,100,77,38,30.26,30.18,7,1,7,0.00
2012-9-13,77.9,65.3,53.0,62.7,57.3,53.0,100,78,45,30.27,30.14,10,2,10,0.00
2012-9-14,77.7,66.3,54.9,66.8,59.2,54.9,100,80,48,30.17,29.97,10,2,10,0.00
2012-9-15,69.4,61.8,53.6,62.7,54.4,48.3,100,79,49,30.01,29.93,18,4,18,0.03
2012-9-16,68.8,57.5,46.9,57.3,50.0,46.7,100,78,48,30.04,29.90,10,2,10,0.00
2012-9-17,74.2,61.7,46.6,58.1,53.2,46.6,100,76,50,30.03,29.90,9,2,9,0.00
2012-9-18,71.9,66.0,56.4,71.6,65.5,54.4,100,98,84,29.93,29.52,28,8,28,1.95
2012-9-19,67.2,59.9,49.7,67.2,53.0,45.5,100,80,47,30.10,29.59,17,4,17,0.01
2012-9-20,65.9,55.6,45.1,55.0,50.6,45.1,100,84,62,30.14,30.00,15,2,15,0.00
2012-9-21,70.0,59.1,51.5,60.1,52.8,48.9,100,82,52,30.04,29.90,9,2,9,0.00
2012-9-22,68.6,61.2,53.2,68.3,59.2,52.3,100,93,78,29.93,29.67,30,3,30,0.48
2012-9-23,65.2,56.6,47.8,60.2,50.7,44.8,100,82,50,30.03,29.73,12,2,12,0.02
2012-9-24,63.0,52.6,44.8,52.7,45.2,40.3,100,79,45,30.06,29.96,15,3,15,0.00
2012-9-25,69.5,56.2,42.9,55.7,47.5,42.4,100,76,39,30.11,29.99,21,3,21,0.00
2012-9-26,68.2,63.0,58.4,63.1,59.9,55.2,100,90,79,30.02,29.88,12,4,12,0.04
2012-9-27,70.0,63.7,56.8,63.4,57.5,51.3,100,82,53,30.10,29.92,12,3,12,0.00
2012-9-28,58.6,56.1,54.0,58.6,55.7,51.6,100,99,83,30.09,29.86,8,1,8,0.84
2012-9-29,61.1,56.8,54.1,58.3,55.7,54.1,100,96,81,29.87,29.75,9,1,9,0.03
2012-9-30,65.5,57.0,51.1,59.8,53.5,48.0,100,89,58,29.80,29.62,15,3,15,0.09
2012-10-1,66.3,57.7,50.1,53.5,50.8,47.9,97,79,59,29.88,29.68,21,7,21,0.00
2012-10-2,61.5,57.4,53.5,60.9,57.3,53.0,100,100,96,29.94,29.88,7,0,7,1.22
2012-10-3,69.3,64.6,59.4,69.3,64.6,59.4,100,100,100,30.00,29.90,5,0,5,0.02
2012-10-4,69.8,67.2,63.0,69.8,67.2,63.0,100,100,100,30.02,29.91,9,0,9,0.91
2012-10-5,75.6,65.2,58.4,66.3,60.0,53.5,100,86,47,29.95,29.81,9,2,9,0.05
2012-10-6,73.8,61.9,50.8,62.3,54.7,42.3,100,78,63,29.88,29.61,16,7,16,0.00
2012-10-7,53.6,48.8,41.7,47.9,43.8,40.4,99,84,67,30.02,29.88,10,1,10,0.13
2012-10-8,56.0,47.2,39.4,48.3,44.1,39.4,100,90,63,30.21,30.01,7,1,7,0.00
2012-10-9,55.9,51.3,45.6,52.0,49.2,45.1,100,93,77,30.19,30.03,8,2,8,0.00
2012-10-10,61.0,54.2,50.2,59.9,52.1,39.4,100,93,66,30.03,29.67,21,4,21,0.31
2012-10-11,57.0,49.0,43.0,41.8,38.2,34.4,85,68,43,30.08,29.83,24,7,24,0.00
2012-10-12,53.6,44.6,36.7,45.1,36.2,26.7,97,74,49,30.35,29.98,14,3,14,0.03
2012-10-13,53.2,41.6,28.9,39.1,29.6,25.0,94,65,36,30.43,30.19,13,2,13,0.00
2012-10-14,65.7,56.0,46.4,55.9,49.2,39.0,94,78,61,30.20,29.84,18,5,18,0.02
2012-10-15,68.9,61.2,55.8,62.7,58.7,55.4,100,92,72,29.84,29.52,24,4,24,0.37
2012-10-16,57.2,50.5,40.3,57.2,42.8,36.6,100,76,52,29.83,29.54,25,4,25,0.00
2012-10-17,60.2,48.2,38.5,43.1,39.5,36.1,94,74,47,29.92,29.82,7,2,7,0.00
2012-10-18,64.5,55.3,39.7,53.6,48.3,39.7,100,79,52,29.99,29.88,17,4,17,0.00
2012-10-19,65.4,62.1,55.9,65.4,61.9,53.5,100,99,90,29.90,29.57,16,5,16,1.70
2012-10-20,70.5,61.7,50.5,64.5,53.5,40.5,100,77,41,29.70,29.51,17,5,17,0.00
2012-10-21,64.3,54.3,44.6,44.4,41.1,38.2,89,63,39,29.87,29.70,18,7,18,0.00
2012-10-22,66.9,55.3,46.6,44.2,41.8,38.7,85,62,36,29.98,29.86,18,6,18,0.00
2012-10-23,59.9,52.8,48.0,53.7,45.8,40.1,100,78,56,30.04,29.96,8,1,8,0.26
2012-10-24,55.0,52.7,50.4,53.3,50.8,46.2,100,94,76,30.12,30.01,6,0,6,0.09
2012-10-25,59.5,54.7,50.7,52.4,50.7,48.4,100,87,70,30.19,30.11,9,1,9,0.00
2012-10-26,62.2,58.2,54.7,56.2,54.6,51.9,94,88,79,30.14,30.01,9,2,9,0.00
2012-10-27,63.3,59.4,57.0,57.6,55.1,53.3,97,86,72,30.01,29.85,10,2,10,0.00
2012-10-28,57.4,54.7,52.2,54.3,47.8,40.5,94,78,60,29.85,29.62,20,7,20,0.00
2012-10-29,64.4,56.0,51.9,61.7,52.5,46.5,100,88,72,29.62,28.72,50,16,50,0.23
2012-10-31,46.7,46.2,43.6,40.5,39.8,38.3,82,78,77,29.59,29.54,18,6,19,0.23
2012-11-1,52.6,46.8,43.2,42.1,40.2,38.3,85,78,63,29.59,29.50,14,6,14,0.00
2012-11-2,52.3,46.2,40.8,41.0,37.7,33.2,84,73,50,29.71,29.56,16,6,16,0.00
2012-11-3,49.2,42.4,38.2,34.9,33.1,30.9,84,70,51,29.91,29.70,18,6,18,0.00
2012-11-4,48.3,40.5,35.7,33.1,31.5,29.9,82,70,54,29.99,29.90,15,5,15,0.00
2012-11-5,41.3,36.4,30.2,30.1,24.6,19.9,73,62,52,30.18,29.99,16,4,16,0.00
2012-11-6,41.7,32.5,24.1,23.8,20.3,19.0,82,62,42,30.25,30.12,7,1,7,0.00
2012-11-7,38.4,33.0,29.7,32.8,27.9,19.5,98,82,61,30.13,29.79,21,7,21,0.46
2012-11-8,41.8,36.3,30.2,30.5,28.4,25.0,96,73,62,29.88,29.71,22,8,22,0.10
2012-11-9,51.5,44.4,34.0,34.0,26.5,20.6,69,50,34,30.17,29.98,22,6,22,0.00
2012-11-10,55.1,47.3,39.7,41.4,38.2,34.0,81,71,58,30.42,30.17,13,2,13,0.00
2012-11-11,63.6,52.9,43.6,49.1,45.5,39.6,94,77,53,30.49,30.38,13,4,13,0.00
2012-11-12,63.5,55.3,44.5,59.1,52.5,44.3,100,90,72,30.46,30.17,17,5,17,0.00
2012-11-13,62.2,46.1,35.9,59.1,41.9,27.4,98,86,70,30.45,30.08,20,6,20,0.22
2012-11-14,46.1,37.4,31.1,30.7,27.5,25.1,81,68,48,30.53,30.44,10,3,10,0.00
2012-11-15,44.1,35.6,29.1,29.1,26.8,24.4,84,71,53,30.48,30.30,7,1,7,0.00
2012-11-16,44.4,36.7,30.7,31.1,27.6,23.9,86,70,51,30.44,30.29,12,3,12,0.00
2012-11-17,49.1,39.4,32.7,33.6,29.5,26.2,84,68,52,30.64,30.44,12,3,12,0.00
2012-11-18,47.9,37.6,29.6,33.1,29.5,27.6,92,74,52,30.70,30.59,9,1,9,0.00
2012-11-19,43.1,34.0,29.2,35.6,30.9,28.0,96,88,73,30.60,30.26,7,1,7,0.00
2012-11-20,48.8,37.9,29.5,35.0,31.5,28.5,96,79,53,30.26,30.11,6,1,6,0.00
2012-11-21,52.5,41.8,33.5,32.0,28.0,21.0,84,61,29,30.25,30.15,8,1,8,0.00
2012-11-22,54.4,42.0,31.2,40.1,34.6,27.4,93,76,54,30.28,30.13,7,1,7,0.00
2012-11-23,56.6,42.9,31.2,45.9,38.5,30.8,100,86,50,30.13,29.65,15,2,15,0.02
2012-11-24,46.5,39.2,31.9,45.9,26.1,19.2,98,60,40,29.77,29.63,26,11,26,0.08
2012-11-25,38.7,34.8,32.0,25.8,22.5,18.1,70,61,50,29.91,29.77,24,11,24,0.00
2012-11-26,45.5,37.5,30.8,26.6,23.9,20.9,69,58,42,30.25,29.90,22,7,22,0.00
2012-11-27,34.6,32.6,29.4,34.1,29.6,21.6,100,89,68,30.30,30.20,7,0,7,0.13
2012-11-28,37.8,33.1,29.7,33.8,28.5,23.8,100,84,66,30.23,30.14,15,4,15,0.00
2012-11-29,41.5,34.7,27.3,28.5,26.0,23.4,86,71,55,30.30,30.20,18,7,18,0.00
2012-11-30,41.9,35.7,31.0,30.7,26.9,19.4,81,70,61,30.49,30.28,15,3,15,0.00
2012-12-1,35.1,32.0,29.4,35.1,28.5,18.6,100,87,60,30.56,30.44,9,2,9,0.00
2012-12-2,49.0,43.4,35.1,48.7,43.0,35.1,100,98,92,30.44,30.08,13,3,13,0.11
2012-12-3,55.1,47.6,38.5,49.4,44.7,37.6,100,90,68,30.29,30.07,13,2,13,0.00
2012-12-4,53.3,45.3,36.5,53.3,45.3,36.3,100,100,98,30.30,29.96,10,1,10,0.06
2012-12-5,53.8,45.9,31.0,53.8,38.7,20.3,100,77,50,30.24,29.89,21,6,21,0.01
2012-12-6,37.2,29.7,24.7,21.2,18.8,16.4,80,64,49,30.35,30.23,17,4,17,0.00
2012-12-7,40.8,32.2,24.1,40.8,30.0,19.7,100,91,76,30.29,30.02,6,0,6,0.11
2012-12-8,46.7,43.3,38.4,46.7,43.3,38.4,100,100,100,30.02,29.85,2,0,2,0.21
2012-12-9,46.5,41.6,38.5,46.5,38.6,33.5,100,89,69,30.27,29.99,14,4,14,0.12
2012-12-10,55.6,47.8,39.0,55.6,47.8,39.0,100,100,92,30.06,29.53,17,3,17,0.09
2012-12-11,45.3,40.2,30.9,43.2,34.5,26.3,97,81,63,30.19,29.61,13,2,13,0.04
2012-12-12,41.0,33.0,28.9,29.6,26.8,25.0,88,78,56,30.44,30.19,8,1,8,0.00
2012-12-13,42.6,32.6,25.7,30.8,26.6,24.6,96,80,54,30.48,30.31,9,1,9,0.00
2012-12-14,47.3,34.7,24.7,32.0,26.3,23.6,96,74,41,30.31,30.10,14,1,14,0.00
2012-12-15,41.4,35.3,30.6,31.1,28.0,26.4,90,75,56,30.31,30.21,6,0,6,0.00
2012-12-16,35.0,33.7,32.0,34.7,31.8,28.4,100,93,80,30.24,29.96,12,6,12,0.01
2012-12-17,39.8,36.2,34.2,39.8,36.2,34.2,100,100,100,29.96,29.69,10,2,10,0.45
2012-12-18,46.8,42.7,39.0,46.8,42.4,37.8,100,99,87,29.68,29.44,18,4,18,0.96
2012-12-19,45.5,39.6,34.9,37.9,29.7,25.8,92,68,51,30.11,29.55,23,8,23,0.00
2012-12-20,41.2,35.8,30.1,37.8,28.7,24.4,99,76,61,30.20,29.88,14,4,14,0.07
2012-12-21,55.1,42.4,36.1,55.1,39.2,29.1,100,89,74,29.88,29.02,29,16,29,1.27
2012-12-22,36.4,33.3,30.8,33.3,25.5,19.7,96,73,60,29.74,29.26,28,14,28,0.00
2012-12-23,39.1,34.0,30.9,27.0,23.7,21.3,74,66,58,29.91,29.74,22,10,22,0.00
2012-12-24,36.4,31.7,27.6,28.3,22.6,20.7,96,69,56,30.08,29.91,14,2,14,0.04
2012-12-25,37.2,31.4,26.8,33.3,28.6,23.0,99,89,76,30.27,29.95,12,3,12,0.07
2012-12-26,33.2,27.7,21.9,33.0,23.2,18.5,100,84,62,30.32,29.62,25,6,25,0.54
2012-12-27,37.9,33.1,28.1,36.9,31.4,22.4,100,93,77,29.77,29.36,23,10,23,0.49
2012-12-28,34.4,29.1,25.3,25.7,23.3,20.0,87,79,69,30.07,29.77,22,7,22,0.00
2012-12-29,30.2,28.1,26.3,28.9,26.1,23.2,99,92,84,30.05,29.51,14,4,14,0.33
2012-12-30,31.5,27.4,22.7,26.6,17.3,12.6,95,67,47,30.08,29.56,31,13,31,0.00
2012-12-31,35.4,29.2,21.0,24.1,20.1,12.6,81,69,62,30.13,29.81,21,8,21,0.00
2013-1-1,36.8,31.7,18.8,28.1,21.5,10.0,74,66,51,29.98,29.78,23,8,23,0.00